Terminal Aerodrome Forecast
Issued by NWS

Home | Current Version | Previous Version | Text Only | Print | Product List | Glossary On
Versions: 1 2 3 4 5 6 7 8 9 10 11 12 13 14 15
253
FTUS41 KCAR 161733
TAFPQI
TAF
KPQI 161733Z 1618/1718 22011KT P6SM VCSH OVC035
     FM162300 25009KT P6SM BKN060
     FM170300 28008KT P6SM SCT090=

USA.gov is the U.S. government's official web portal to all federal, state and local government web resources and services.